createdAt,value
2022-12-18T00:03:01.438Z,16.80
2022-12-18T00:06:07.291Z,13.32
2022-12-18T00:09:12.988Z,14.65
2022-12-18T00:12:21.346Z,14.48
2022-12-18T00:15:31.122Z,16.40
2022-12-18T00:18:58.409Z,15.73
2022-12-18T00:22:03.639Z,13.23
2022-12-18T00:25:09.593Z,15.70
2022-12-18T00:28:17.813Z,15.45
2022-12-18T00:31:25.020Z,13.13
2022-12-18T00:34:30.414Z,15.93
2022-12-18T00:37:42.049Z,11.93
2022-12-18T00:40:48.336Z,13.48
2022-12-18T00:43:53.754Z,17.15
2022-12-18T00:46:59.117Z,14.13
2022-12-18T00:50:05.785Z,13.75
2022-12-18T00:53:17.721Z,17.02
2022-12-18T00:56:26.469Z,14.88
2022-12-18T00:59:35.197Z,17.35
2022-12-18T01:02:42.651Z,16.13
2022-12-18T01:05:48.176Z,13.65
2022-12-18T01:08:55.221Z,15.48
2022-12-18T01:12:02.569Z,14.63
2022-12-18T01:15:12.001Z,15.27
2022-12-18T01:18:18.668Z,11.75
2022-12-18T01:21:25.480Z,13.60
2022-12-18T01:24:31.141Z,14.30
2022-12-18T01:27:37.433Z,13.90
2022-12-18T01:30:45.466Z,16.70
2022-12-18T01:33:57.310Z,16.05
2022-12-18T01:37:02.752Z,11.65
2022-12-18T01:40:08.955Z,9.70
2022-12-18T01:43:14.391Z,12.02
2022-12-18T01:46:26.081Z,13.80
2022-12-18T01:49:32.444Z,14.05
2022-12-18T01:52:38.676Z,11.45
2022-12-18T01:55:45.748Z,13.40
2022-12-18T01:58:54.936Z,11.98
2022-12-18T02:02:03.793Z,13.52
2022-12-18T02:05:10.618Z,12.70
2022-12-18T02:08:20.440Z,16.73
2022-12-18T02:11:34.796Z,12.75
2022-12-18T02:14:42.498Z,12.40
2022-12-18T02:17:54.127Z,14.55
2022-12-18T02:21:02.117Z,12.13
2022-12-18T02:24:16.925Z,14.32
2022-12-18T02:27:25.049Z,12.15
2022-12-18T02:30:34.233Z,11.82
2022-12-18T02:33:40.287Z,13.57
2022-12-18T02:36:48.318Z,12.05
2022-12-18T02:39:53.961Z,14.55
2022-12-18T02:43:06.068Z,11.93
2022-12-18T02:46:27.731Z,12.05
2022-12-18T02:49:37.802Z,13.30
2022-12-18T02:52:48.854Z,13.75
2022-12-18T02:55:59.577Z,9.15
2022-12-18T02:59:10.683Z,8.77
2022-12-18T03:02:21.443Z,9.57
2022-12-18T03:05:28.851Z,11.02
2022-12-18T03:08:36.181Z,10.80
2022-12-18T03:11:55.994Z,11.30
2022-12-18T03:15:17.689Z,13.07
2022-12-18T03:18:25.501Z,12.05
2022-12-18T03:21:34.102Z,14.50
2022-12-18T03:24:40.730Z,12.32
2022-12-18T03:27:47.509Z,12.45
2022-12-18T03:30:58.418Z,10.52
2022-12-18T03:34:05.400Z,9.40
2022-12-18T03:37:10.970Z,11.63
2022-12-18T03:40:18.791Z,11.98
2022-12-18T03:43:27.746Z,11.30
2022-12-18T03:46:45.152Z,10.65
2022-12-18T03:49:51.209Z,7.90
2022-12-18T03:53:00.217Z,10.02
2022-12-18T03:56:06.162Z,10.20
2022-12-18T03:59:13.367Z,11.02
2022-12-18T04:02:22.295Z,9.07
2022-12-18T04:05:32.983Z,11.00
2022-12-18T04:08:39.837Z,12.25
2022-12-18T04:11:46.377Z,11.35
2022-12-18T04:14:51.701Z,9.50
2022-12-18T04:18:00.225Z,10.13
2022-12-18T04:21:05.483Z,9.13
2022-12-18T04:24:11.475Z,8.77
2022-12-18T04:27:17.945Z,8.90
2022-12-18T04:30:23.502Z,9.80
2022-12-18T04:33:31.685Z,9.85
2022-12-18T04:36:39.667Z,8.35
2022-12-18T04:39:44.825Z,11.57
2022-12-18T04:42:50.786Z,9.63
2022-12-18T04:45:56.151Z,9.98
2022-12-18T04:49:04.768Z,10.20
2022-12-18T04:52:12.883Z,10.90
2022-12-18T04:55:18.826Z,9.82
2022-12-18T04:58:24.027Z,10.55
2022-12-18T05:01:34.568Z,11.25
2022-12-18T05:04:43.372Z,9.35
2022-12-18T05:07:50.398Z,9.07
2022-12-18T05:11:02.335Z,10.52
2022-12-18T05:14:08.109Z,8.80
2022-12-18T05:17:13.456Z,8.60
2022-12-18T05:20:21.991Z,11.50
2022-12-18T05:23:28.108Z,10.98
2022-12-18T05:26:33.774Z,10.48
2022-12-18T05:29:39.676Z,9.95
2022-12-18T05:32:48.969Z,10.75
2022-12-18T05:35:57.424Z,12.15
2022-12-18T05:39:03.245Z,10.07
2022-12-18T05:42:08.322Z,12.52
2022-12-18T05:45:16.218Z,9.38
2022-12-18T05:48:25.655Z,10.23
2022-12-18T05:51:34.130Z,9.68
2022-12-18T05:54:40.140Z,9.30
2022-12-18T05:57:45.946Z,11.85
2022-12-18T06:00:51.212Z,8.30
2022-12-18T06:03:59.771Z,8.48
2022-12-18T06:07:11.099Z,9.48
2022-12-18T06:10:16.749Z,14.32
2022-12-18T06:13:22.049Z,11.32
2022-12-18T06:16:27.526Z,8.82
2022-12-18T06:19:32.851Z,10.88
2022-12-18T06:22:41.435Z,9.70
2022-12-18T06:25:46.749Z,10.48
2022-12-18T06:28:52.134Z,10.82
2022-12-18T06:31:57.158Z,11.68
2022-12-18T06:35:03.060Z,9.38
2022-12-18T06:38:11.247Z,11.25
2022-12-18T06:41:17.689Z,11.07
2022-12-18T06:44:23.170Z,9.88
2022-12-18T06:47:29.998Z,9.75
2022-12-18T06:50:35.160Z,10.90
2022-12-18T06:53:43.606Z,9.25
2022-12-18T06:56:49.156Z,11.20
2022-12-18T06:59:54.584Z,9.80
2022-12-18T07:03:00.481Z,8.27
2022-12-18T07:06:07.516Z,13.55
2022-12-18T07:09:15.383Z,9.95
2022-12-18T07:12:21.137Z,9.45
2022-12-18T07:15:28.174Z,7.65
2022-12-18T07:18:33.600Z,11.68
2022-12-18T07:21:42.215Z,7.78
2022-12-18T07:24:57.117Z,10.15
2022-12-18T07:28:02.429Z,8.48
2022-12-18T07:31:08.517Z,10.35
2022-12-18T07:34:14.241Z,8.82
2022-12-18T07:37:19.661Z,9.52
2022-12-18T07:40:28.100Z,9.18
2022-12-18T07:43:34.981Z,8.63
2022-12-18T07:46:42.931Z,11.52
2022-12-18T07:49:48.751Z,9.35
2022-12-18T07:52:53.939Z,9.23
2022-12-18T07:56:26.463Z,9.95
2022-12-18T07:59:28.345Z,8.27
2022-12-18T08:02:35.001Z,11.43
2022-12-18T08:05:40.931Z,12.68
2022-12-18T08:08:48.591Z,10.15
2022-12-18T08:11:59.193Z,10.35
2022-12-18T08:15:07.255Z,8.85
2022-12-18T08:18:14.453Z,8.68
2022-12-18T08:21:22.257Z,9.00
2022-12-18T08:24:27.525Z,7.80
2022-12-18T08:27:37.250Z,8.60
2022-12-18T08:30:43.877Z,9.13
2022-12-18T08:33:50.038Z,9.88
2022-12-18T08:36:55.109Z,9.35
2022-12-18T08:40:02.362Z,10.00
2022-12-18T08:43:24.050Z,7.55
2022-12-18T08:46:32.861Z,11.13
2022-12-18T08:49:38.724Z,10.93
2022-12-18T08:52:45.181Z,9.18
2022-12-18T08:55:50.697Z,10.30
2022-12-18T08:58:59.301Z,8.60
2022-12-18T09:02:04.317Z,7.72
2022-12-18T09:05:11.110Z,8.93
2022-12-18T09:08:19.432Z,8.98
2022-12-18T09:11:26.127Z,9.32
2022-12-18T09:14:34.107Z,10.52
2022-12-18T09:17:40.908Z,8.65
2022-12-18T09:20:47.460Z,9.80
2022-12-18T09:23:54.004Z,9.38
2022-12-18T09:27:00.128Z,8.27
2022-12-18T09:30:10.076Z,9.82
2022-12-18T09:33:15.114Z,10.27
2022-12-18T09:36:25.064Z,7.95
2022-12-18T09:39:30.282Z,11.30
2022-12-18T09:42:35.871Z,7.65
2022-12-18T09:45:46.969Z,7.43
2022-12-18T09:48:54.865Z,10.50
2022-12-18T09:52:04.331Z,7.90
2022-12-18T09:55:15.076Z,8.43
2022-12-18T09:58:23.256Z,9.52
2022-12-18T10:01:43.094Z,6.75
2022-12-18T10:04:54.366Z,6.38
2022-12-18T10:08:06.225Z,9.25
2022-12-18T10:11:21.331Z,8.90
2022-12-18T10:14:32.451Z,7.65
2022-12-18T10:17:47.759Z,7.25
2022-12-18T10:20:56.805Z,8.75
2022-12-18T10:24:07.134Z,7.93
2022-12-18T10:27:16.784Z,6.70
2022-12-18T10:30:23.382Z,7.82
2022-12-18T10:33:33.463Z,6.78
2022-12-18T10:36:41.289Z,5.85
2022-12-18T10:39:49.030Z,7.40
2022-12-18T10:43:07.055Z,8.10
2022-12-18T10:46:18.637Z,7.25
2022-12-18T10:49:30.249Z,7.18
2022-12-18T10:52:38.659Z,7.73
2022-12-18T10:55:50.069Z,10.38
2022-12-18T10:59:00.128Z,5.68
2022-12-18T11:02:05.554Z,8.82
2022-12-18T11:05:25.991Z,8.98
2022-12-18T11:08:34.716Z,9.00
2022-12-18T11:11:41.262Z,6.57
2022-12-18T11:14:47.788Z,9.10
2022-12-18T11:17:54.646Z,8.90
2022-12-18T11:21:01.993Z,8.02
2022-12-18T11:24:22.085Z,9.90
2022-12-18T11:31:47.840Z,7.90
2022-12-18T11:34:59.180Z,8.85
2022-12-18T11:38:08.703Z,8.85
2022-12-18T11:41:54.451Z,9.18
2022-12-18T11:45:28.036Z,8.98
2022-12-18T11:49:05.370Z,6.28
2022-12-18T11:57:47.099Z,6.68
2022-12-18T12:09:07.760Z,6.82
2022-12-18T12:16:44.728Z,9.60
2022-12-18T12:20:04.791Z,8.95
2022-12-18T12:23:23.519Z,8.13
2022-12-18T12:26:52.804Z,8.73
2022-12-18T12:30:05.590Z,7.90
2022-12-18T12:33:23.056Z,8.85
2022-12-18T12:36:35.371Z,9.55
2022-12-18T12:39:46.306Z,11.02
2022-12-18T12:43:07.174Z,8.43
2022-12-18T12:46:13.996Z,8.73
2022-12-18T12:49:22.493Z,10.82
2022-12-18T12:52:32.109Z,11.50
2022-12-18T12:55:40.384Z,10.95
2022-12-18T12:58:50.439Z,7.07
2022-12-18T13:01:58.739Z,7.93
2022-12-18T13:05:18.215Z,10.47
2022-12-18T13:08:27.578Z,8.43
2022-12-18T13:11:56.318Z,10.32
2022-12-18T13:15:16.299Z,10.10
2022-12-18T13:18:23.948Z,9.02
2022-12-18T13:21:32.673Z,11.35
2022-12-18T13:24:39.117Z,8.38
2022-12-18T13:28:01.186Z,8.25
2022-12-18T13:31:08.854Z,10.13
2022-12-18T13:34:26.158Z,10.35
2022-12-18T13:37:54.881Z,8.25
2022-12-18T13:41:01.065Z,9.73
2022-12-18T13:44:15.086Z,9.57
2022-12-18T13:47:29.992Z,8.48
2022-12-18T13:50:37.457Z,10.43
2022-12-18T13:53:47.638Z,8.23
2022-12-18T13:56:54.127Z,10.80
2022-12-18T14:00:04.470Z,9.25
2022-12-18T14:03:22.576Z,8.48
2022-12-18T14:06:28.367Z,10.38
2022-12-18T14:09:39.615Z,10.98
2022-12-18T14:13:03.212Z,10.18
2022-12-18T14:16:10.473Z,9.70
2022-12-18T14:19:18.149Z,8.40
2022-12-18T14:22:28.937Z,8.82
2022-12-18T14:25:36.664Z,7.10
2022-12-18T14:28:47.443Z,7.82
2022-12-18T14:32:11.821Z,8.93
2022-12-18T14:35:19.337Z,7.20
2022-12-18T14:38:27.623Z,8.40
2022-12-18T14:41:35.716Z,8.20
2022-12-18T14:45:05.098Z,8.30
2022-12-18T14:48:11.934Z,10.13
2022-12-18T14:51:20.677Z,7.95
2022-12-18T14:54:41.610Z,8.57
2022-12-18T14:57:53.225Z,8.32
2022-12-18T15:00:59.446Z,7.85
2022-12-18T15:04:05.741Z,9.05
2022-12-18T15:07:14.003Z,8.82
2022-12-18T15:10:20.221Z,7.05
2022-12-18T15:13:28.984Z,9.60
2022-12-18T15:16:37.346Z,9.07
2022-12-18T15:19:44.608Z,8.90
2022-12-18T15:22:51.679Z,9.30
2022-12-18T15:26:01.799Z,10.70
2022-12-18T15:29:15.515Z,5.90
2022-12-18T15:32:23.987Z,6.88
2022-12-18T15:35:29.430Z,9.02
2022-12-18T15:38:35.949Z,7.80
2022-12-18T15:42:05.489Z,9.48
2022-12-18T15:45:18.370Z,8.57
2022-12-18T15:48:26.319Z,9.35
2022-12-18T15:51:38.567Z,9.23
2022-12-18T15:54:55.981Z,9.80
2022-12-18T15:58:01.759Z,8.77
2022-12-18T16:01:11.632Z,7.85
2022-12-18T16:04:23.802Z,7.07
2022-12-18T16:07:30.916Z,8.00
2022-12-18T16:10:36.975Z,8.32
2022-12-18T16:13:42.990Z,7.25
2022-12-18T16:16:52.514Z,6.97
2022-12-18T16:19:59.147Z,7.40
2022-12-18T16:23:05.855Z,7.93
2022-12-18T16:26:13.028Z,8.43
2022-12-18T16:29:32.491Z,9.00
2022-12-18T16:32:41.938Z,7.95
2022-12-18T16:35:55.056Z,8.32
2022-12-18T16:39:00.933Z,7.40
2022-12-18T16:42:07.228Z,7.70
2022-12-18T16:45:22.409Z,6.85
2022-12-18T16:48:32.149Z,6.35
2022-12-18T16:51:38.667Z,7.55
2022-12-18T16:54:45.535Z,7.18
2022-12-18T16:57:50.516Z,7.90
2022-12-18T17:00:58.154Z,9.70
2022-12-18T17:04:10.935Z,8.45
2022-12-18T17:07:17.874Z,6.28
2022-12-18T17:10:23.144Z,8.63
2022-12-18T17:13:30.590Z,8.40
2022-12-18T17:16:40.132Z,5.78
2022-12-18T17:19:52.250Z,8.27
2022-12-18T17:22:58.161Z,7.97
2022-12-18T17:26:19.666Z,7.60
2022-12-18T17:29:25.226Z,8.25
2022-12-18T17:32:31.560Z,8.95
2022-12-18T17:35:41.182Z,9.93
2022-12-18T17:38:48.020Z,7.43
2022-12-18T17:41:53.615Z,7.60
2022-12-18T17:45:00.548Z,6.97
2022-12-18T17:48:05.837Z,8.73
2022-12-18T17:51:14.960Z,9.18
2022-12-18T17:54:20.197Z,7.82
2022-12-18T17:57:26.191Z,7.95
2022-12-18T18:00:31.505Z,8.63
2022-12-18T18:03:42.153Z,8.80
2022-12-18T18:06:53.383Z,9.73
2022-12-18T18:10:11.154Z,9.95
2022-12-18T18:13:47.206Z,9.75
2022-12-18T18:16:55.386Z,9.75
2022-12-18T18:20:02.076Z,10.02
2022-12-18T18:23:11.787Z,8.38
2022-12-18T18:26:17.199Z,7.28
2022-12-18T18:29:26.891Z,8.20
2022-12-18T18:32:34.573Z,5.85
2022-12-18T18:35:53.772Z,10.88
2022-12-18T18:39:06.382Z,10.75
2022-12-18T18:45:24.537Z,9.25
2022-12-18T18:48:34.657Z,10.50
2022-12-18T18:51:44.124Z,10.57
2022-12-18T18:55:12.343Z,8.35
2022-12-18T18:58:18.535Z,8.70
2022-12-18T19:01:25.214Z,9.38
2022-12-18T19:04:31.401Z,11.13
2022-12-18T19:07:37.315Z,11.15
2022-12-18T19:10:45.645Z,8.65
2022-12-18T19:13:49.646Z,11.52
2022-12-18T19:16:55.632Z,8.63
2022-12-18T19:20:02.043Z,11.70
2022-12-18T19:23:09.008Z,11.95
2022-12-18T19:26:28.857Z,12.05
2022-12-18T19:29:38.637Z,10.85
2022-12-18T19:32:46.338Z,14.15
2022-12-18T19:35:57.777Z,9.15
2022-12-18T19:39:05.225Z,10.30
2022-12-18T19:42:17.893Z,10.90
2022-12-18T19:45:29.413Z,10.43
2022-12-18T19:48:35.488Z,8.85
2022-12-18T19:51:56.859Z,10.07
2022-12-18T19:55:10.277Z,13.15
2022-12-18T20:01:31.392Z,13.07
2022-12-18T20:04:39.366Z,11.07
2022-12-18T20:07:44.699Z,12.20
2022-12-18T20:10:53.113Z,12.80
2022-12-18T20:14:00.176Z,11.00
2022-12-18T20:17:08.964Z,10.70
2022-12-18T20:20:15.130Z,12.65
2022-12-18T20:23:23.733Z,12.02
2022-12-18T20:26:28.948Z,10.07
2022-12-18T20:29:34.852Z,9.75
2022-12-18T20:32:45.118Z,10.45
2022-12-18T20:35:50.988Z,11.00
2022-12-18T20:39:16.764Z,11.07
2022-12-18T20:42:25.425Z,10.88
2022-12-18T20:45:32.957Z,11.45
2022-12-18T20:48:45.630Z,10.32
2022-12-18T20:51:53.357Z,9.35
2022-12-18T20:55:01.524Z,10.65
2022-12-18T20:58:08.605Z,11.63
2022-12-18T21:01:21.915Z,11.15
2022-12-18T21:04:31.233Z,11.20
2022-12-18T21:07:37.590Z,12.00
2022-12-18T21:10:48.345Z,10.43
2022-12-18T21:14:00.466Z,8.90
2022-12-18T21:17:06.074Z,13.30
2022-12-18T21:20:17.808Z,11.52
2022-12-18T21:23:28.482Z,12.07
2022-12-18T21:26:43.418Z,10.60
2022-12-18T21:29:53.570Z,9.07
2022-12-18T21:33:01.901Z,7.72
2022-12-18T21:36:11.101Z,12.68
2022-12-18T21:39:20.274Z,11.80
2022-12-18T21:42:45.233Z,13.57
2022-12-18T21:45:51.236Z,12.90
2022-12-18T21:49:01.244Z,13.73
2022-12-18T21:52:14.753Z,12.43
2022-12-18T21:55:22.365Z,13.75
2022-12-18T21:58:33.227Z,13.43
2022-12-18T22:01:39.641Z,12.95
2022-12-18T22:04:49.145Z,13.75
2022-12-18T22:08:01.807Z,11.50
2022-12-18T22:14:20.338Z,10.10
2022-12-18T22:17:26.173Z,10.75
2022-12-18T22:20:32.198Z,13.95
2022-12-18T22:24:06.188Z,12.68
2022-12-18T22:27:14.173Z,13.38
2022-12-18T22:30:16.914Z,12.82
2022-12-18T22:33:22.063Z,11.85
2022-12-18T22:36:30.186Z,14.18
2022-12-18T22:39:38.770Z,8.95
2022-12-18T22:42:44.868Z,11.55
2022-12-18T22:45:55.595Z,11.10
2022-12-18T22:49:03.634Z,13.32
2022-12-18T22:52:09.747Z,9.75
2022-12-18T22:55:18.656Z,11.68
2022-12-18T22:58:24.141Z,13.35
2022-12-18T23:01:32.983Z,12.07
2022-12-18T23:04:40.714Z,13.93
2022-12-18T23:07:48.747Z,11.68
2022-12-18T23:11:02.506Z,15.75
2022-12-18T23:14:08.225Z,10.88
2022-12-18T23:17:14.019Z,12.63
2022-12-18T23:20:21.742Z,15.52
2022-12-18T23:23:27.065Z,14.75
2022-12-18T23:26:36.297Z,15.13
2022-12-18T23:29:41.600Z,13.15
2022-12-18T23:32:47.730Z,14.45
2022-12-18T23:35:55.733Z,13.02
2022-12-18T23:39:02.500Z,15.23
2022-12-18T23:42:10.534Z,16.05
2022-12-18T23:45:18.598Z,12.90
2022-12-18T23:48:26.274Z,12.93
2022-12-18T23:51:32.742Z,13.25
2022-12-18T23:54:39.708Z,13.82
2022-12-18T23:57:49.609Z,13.35
